sensor_id;sensor_type;location;lat;lon;timestamp;temperature;humidity
1137;DHT22;557;48.466;7.950;2023-04-25T00:00:05;9.80;99.90
1137;DHT22;557;48.466;7.950;2023-04-25T00:02:53;9.90;1.00
1137;DHT22;557;48.466;7.950;2023-04-25T00:05:43;9.90;99.90
1137;DHT22;557;48.466;7.950;2023-04-25T00:08:31;9.90;89.90
1137;DHT22;557;48.466;7.950;2023-04-25T00:11:18;10.00;1.00
1137;DHT22;557;48.466;7.950;2023-04-25T00:14:05;10.00;99.90
1137;DHT22;557;48.466;7.950;2023-04-25T00:16:53;10.10;99.90
1137;DHT22;557;48.466;7.950;2023-04-25T00:19:40;10.10;99.90
1137;DHT22;557;48.466;7.950;2023-04-25T00:22:29;10.00;4.30
1137;DHT22;557;48.466;7.950;2023-04-25T00:25:16;10.00;99.90
1137;DHT22;557;48.466;7.950;2023-04-25T00:28:03;10.00;80.00
1137;DHT22;557;48.466;7.950;2023-04-25T00:30:51;10.00;1.00
1137;DHT22;557;48.466;7.950;2023-04-25T00:33:38;9.90;99.90
1137;DHT22;557;48.466;7.950;2023-04-25T00:36:25;9.80;1.00
1137;DHT22;557;48.466;7.950;2023-04-25T00:39:14;9.80;1.00
1137;DHT22;557;48.466;7.950;2023-04-25T00:42:02;9.70;1.00
1137;DHT22;557;48.466;7.950;2023-04-25T00:44:50;9.70;1.00
1137;DHT22;557;48.466;7.950;2023-04-25T00:47:38;9.60;72.80
1137;DHT22;557;48.466;7.950;2023-04-25T00:50:26;9.60;99.90
1137;DHT22;557;48.466;7.950;2023-04-25T00:53:14;9.40;99.90
1137;DHT22;557;48.466;7.950;2023-04-25T00:56:03;9.30;1.00
1137;DHT22;557;48.466;7.950;2023-04-25T00:58:52;9.20;1.00
1137;DHT22;557;48.466;7.950;2023-04-25T01:01:41;9.00;1.00
1137;DHT22;557;48.466;7.950;2023-04-25T01:04:29;9.00;1.00
1137;DHT22;557;48.466;7.950;2023-04-25T01:07:16;8.90;1.00
1137;DHT22;557;48.466;7.950;2023-04-25T01:10:05;8.80;1.00
1137;DHT22;557;48.466;7.950;2023-04-25T01:12:54;8.80;1.00
1137;DHT22;557;48.466;7.950;2023-04-25T01:15:41;8.80;1.00
1137;DHT22;557;48.466;7.950;2023-04-25T01:18:29;8.80;1.00
1137;DHT22;557;48.466;7.950;2023-04-25T01:21:18;8.80;1.00
1137;DHT22;557;48.466;7.950;2023-04-25T01:24:06;8.90;1.00
1137;DHT22;557;48.466;7.950;2023-04-25T01:26:54;8.90;1.00
1137;DHT22;557;48.466;7.950;2023-04-25T01:29:42;8.90;1.00
1137;DHT22;557;48.466;7.950;2023-04-25T01:32:30;9.00;1.00
1137;DHT22;557;48.466;7.950;2023-04-25T01:35:24;9.00;1.00
1137;DHT22;557;48.466;7.950;2023-04-25T01:38:13;9.00;1.00
1137;DHT22;557;48.466;7.950;2023-04-25T01:41:01;9.00;1.00
1137;DHT22;557;48.466;7.950;2023-04-25T01:43:49;9.00;1.00
1137;DHT22;557;48.466;7.950;2023-04-25T01:46:36;9.00;1.00
1137;DHT22;557;48.466;7.950;2023-04-25T01:49:24;8.90;1.00
1137;DHT22;557;48.466;7.950;2023-04-25T01:52:11;8.90;1.00
1137;DHT22;557;48.466;7.950;2023-04-25T01:55:01;8.80;1.00
1137;DHT22;557;48.466;7.950;2023-04-25T01:57:49;8.90;1.00
1137;DHT22;557;48.466;7.950;2023-04-25T02:00:36;8.90;1.00
1137;DHT22;557;48.466;7.950;2023-04-25T02:03:25;8.90;1.00
1137;DHT22;557;48.466;7.950;2023-04-25T02:06:12;8.90;1.00
1137;DHT22;557;48.466;7.950;2023-04-25T02:08:59;8.90;1.00
1137;DHT22;557;48.466;7.950;2023-04-25T02:11:48;8.90;1.00
1137;DHT22;557;48.466;7.950;2023-04-25T02:14:36;8.90;1.00
1137;DHT22;557;48.466;7.950;2023-04-25T02:17:23;8.90;1.00
1137;DHT22;557;48.466;7.950;2023-04-25T02:20:11;8.80;1.00
1137;DHT22;557;48.466;7.950;2023-04-25T02:22:58;8.70;1.00
1137;DHT22;557;48.466;7.950;2023-04-25T02:25:46;8.60;1.00
1137;DHT22;557;48.466;7.950;2023-04-25T02:28:34;8.50;1.00
1137;DHT22;557;48.466;7.950;2023-04-25T02:31:22;8.40;1.00
1137;DHT22;557;48.466;7.950;2023-04-25T02:34:09;8.30;1.00
1137;DHT22;557;48.466;7.950;2023-04-25T02:36:56;8.30;1.00
1137;DHT22;557;48.466;7.950;2023-04-25T02:39:44;8.20;38.90
1137;DHT22;557;48.466;7.950;2023-04-25T02:42:31;8.30;84.70
1137;DHT22;557;48.466;7.950;2023-04-25T02:45:21;8.30;81.90
1137;DHT22;557;48.466;7.950;2023-04-25T02:48:08;8.40;76.60
1137;DHT22;557;48.466;7.950;2023-04-25T02:50:56;8.40;79.00
1137;DHT22;557;48.466;7.950;2023-04-25T02:53:43;8.50;66.00
1137;DHT22;557;48.466;7.950;2023-04-25T02:56:30;8.50;45.40
1137;DHT22;557;48.466;7.950;2023-04-25T02:59:18;8.50;50.00
1137;DHT22;557;48.466;7.950;2023-04-25T03:02:06;8.50;10.70
1137;DHT22;557;48.466;7.950;2023-04-25T03:04:54;8.60;15.90
1137;DHT22;557;48.466;7.950;2023-04-25T03:07:41;8.70;23.00
1137;DHT22;557;48.466;7.950;2023-04-25T03:10:29;8.90;1.00
1137;DHT22;557;48.466;7.950;2023-04-25T03:13:16;8.90;1.00
1137;DHT22;557;48.466;7.950;2023-04-25T03:16:04;9.00;1.00
1137;DHT22;557;48.466;7.950;2023-04-25T03:18:53;8.90;1.00
1137;DHT22;557;48.466;7.950;2023-04-25T03:21:40;8.80;13.30
1137;DHT22;557;48.466;7.950;2023-04-25T03:24:28;8.70;45.20
1137;DHT22;557;48.466;7.950;2023-04-25T03:27:15;8.60;80.90
1137;DHT22;557;48.466;7.950;2023-04-25T03:30:03;8.50;99.90
1137;DHT22;557;48.466;7.950;2023-04-25T03:32:51;8.30;99.90
1137;DHT22;557;48.466;7.950;2023-04-25T03:35:39;8.20;99.90
1137;DHT22;557;48.466;7.950;2023-04-25T03:38:28;8.10;99.90
1137;DHT22;557;48.466;7.950;2023-04-25T03:41:15;8.10;99.90
1137;DHT22;557;48.466;7.950;2023-04-25T03:44:03;8.10;99.90
1137;DHT22;557;48.466;7.950;2023-04-25T03:46:50;8.00;99.90
1137;DHT22;557;48.466;7.950;2023-04-25T03:49:38;8.00;99.90
1137;DHT22;557;48.466;7.950;2023-04-25T03:52:26;8.00;99.90
1137;DHT22;557;48.466;7.950;2023-04-25T03:55:14;7.90;99.90
1137;DHT22;557;48.466;7.950;2023-04-25T03:58:01;7.90;99.90
1137;DHT22;557;48.466;7.950;2023-04-25T04:00:48;8.00;99.90
1137;DHT22;557;48.466;7.950;2023-04-25T04:03:36;8.00;99.90
1137;DHT22;557;48.466;7.950;2023-04-25T04:06:23;8.00;99.90
1137;DHT22;557;48.466;7.950;2023-04-25T04:09:12;8.00;99.90
1137;DHT22;557;48.466;7.950;2023-04-25T04:12:01;8.00;99.90
1137;DHT22;557;48.466;7.950;2023-04-25T04:14:48;8.00;99.90
1137;DHT22;557;48.466;7.950;2023-04-25T04:17:36;8.00;99.90
1137;DHT22;557;48.466;7.950;2023-04-25T04:20:23;7.90;99.90
1137;DHT22;557;48.466;7.950;2023-04-25T04:23:11;7.90;99.90
1137;DHT22;557;48.466;7.950;2023-04-25T04:25:59;7.90;99.90
1137;DHT22;557;48.466;7.950;2023-04-25T04:28:47;7.90;99.90
1137;DHT22;557;48.466;7.950;2023-04-25T04:31:36;7.90;99.90
1137;DHT22;557;48.466;7.950;2023-04-25T04:34:23;7.90;99.90
1137;DHT22;557;48.466;7.950;2023-04-25T04:37:11;7.90;99.90
1137;DHT22;557;48.466;7.950;2023-04-25T04:39:59;7.90;99.90
1137;DHT22;557;48.466;7.950;2023-04-25T04:42:48;8.00;99.90
1137;DHT22;557;48.466;7.950;2023-04-25T04:45:35;8.00;99.90
1137;DHT22;557;48.466;7.950;2023-04-25T04:48:24;8.00;99.90
1137;DHT22;557;48.466;7.950;2023-04-25T04:51:11;7.90;99.90
1137;DHT22;557;48.466;7.950;2023-04-25T04:53:59;7.80;99.90
1137;DHT22;557;48.466;7.950;2023-04-25T04:56:48;7.90;99.90
1137;DHT22;557;48.466;7.950;2023-04-25T04:59:37;7.90;99.90
1137;DHT22;557;48.466;7.950;2023-04-25T05:02:24;7.90;99.90
1137;DHT22;557;48.466;7.950;2023-04-25T05:05:12;7.90;99.90
1137;DHT22;557;48.466;7.950;2023-04-25T05:07:59;7.90;99.90
1137;DHT22;557;48.466;7.950;2023-04-25T05:10:46;7.90;99.90
1137;DHT22;557;48.466;7.950;2023-04-25T05:13:34;7.90;99.90
1137;DHT22;557;48.466;7.950;2023-04-25T05:16:22;7.90;99.90
1137;DHT22;557;48.466;7.950;2023-04-25T05:19:10;8.00;99.90
1137;DHT22;557;48.466;7.950;2023-04-25T05:21:57;8.00;99.90
1137;DHT22;557;48.466;7.950;2023-04-25T05:24:44;8.10;99.90
1137;DHT22;557;48.466;7.950;2023-04-25T05:27:31;8.10;99.90
1137;DHT22;557;48.466;7.950;2023-04-25T05:30:19;8.10;99.90
1137;DHT22;557;48.466;7.950;2023-04-25T05:33:08;8.10;99.90
1137;DHT22;557;48.466;7.950;2023-04-25T05:35:55;8.10;99.90
1137;DHT22;557;48.466;7.950;2023-04-25T05:38:42;8.10;99.90
1137;DHT22;557;48.466;7.950;2023-04-25T05:41:30;8.10;99.90
1137;DHT22;557;48.466;7.950;2023-04-25T05:44:17;8.00;99.90
1137;DHT22;557;48.466;7.950;2023-04-25T05:47:04;7.90;99.90
1137;DHT22;557;48.466;7.950;2023-04-25T05:49:53;8.00;99.90
1137;DHT22;557;48.466;7.950;2023-04-25T05:52:41;8.00;99.90
1137;DHT22;557;48.466;7.950;2023-04-25T05:55:28;7.90;99.90
1137;DHT22;557;48.466;7.950;2023-04-25T05:58:15;7.90;99.90
1137;DHT22;557;48.466;7.950;2023-04-25T06:01:03;8.00;99.90
1137;DHT22;557;48.466;7.950;2023-04-25T06:03:50;8.00;99.90
1137;DHT22;557;48.466;7.950;2023-04-25T06:06:39;8.10;99.90
1137;DHT22;557;48.466;7.950;2023-04-25T06:09:27;8.00;99.90
1137;DHT22;557;48.466;7.950;2023-04-25T06:12:14;7.90;99.90
1137;DHT22;557;48.466;7.950;2023-04-25T06:15:01;7.90;99.90
1137;DHT22;557;48.466;7.950;2023-04-25T06:17:49;7.90;99.90
1137;DHT22;557;48.466;7.950;2023-04-25T06:20:36;7.90;99.90
1137;DHT22;557;48.466;7.950;2023-04-25T06:23:25;7.90;99.90
1137;DHT22;557;48.466;7.950;2023-04-25T06:26:12;7.80;99.90
1137;DHT22;557;48.466;7.950;2023-04-25T06:29:00;7.80;99.90
1137;DHT22;557;48.466;7.950;2023-04-25T06:31:47;7.80;99.90
1137;DHT22;557;48.466;7.950;2023-04-25T06:34:34;7.70;99.90
1137;DHT22;557;48.466;7.950;2023-04-25T06:37:22;7.70;99.90
1137;DHT22;557;48.466;7.950;2023-04-25T06:40:11;7.70;99.90
1137;DHT22;557;48.466;7.950;2023-04-25T06:42:58;7.70;99.90
1137;DHT22;557;48.466;7.950;2023-04-25T06:45:46;7.60;99.90
1137;DHT22;557;48.466;7.950;2023-04-25T06:48:33;7.60;99.90
1137;DHT22;557;48.466;7.950;2023-04-25T06:51:20;7.60;99.90
1137;DHT22;557;48.466;7.950;2023-04-25T06:54:08;7.60;99.90
1137;DHT22;557;48.466;7.950;2023-04-25T06:56:56;7.70;99.90
1137;DHT22;557;48.466;7.950;2023-04-25T06:59:44;7.70;99.90
1137;DHT22;557;48.466;7.950;2023-04-25T07:02:31;7.70;99.90
1137;DHT22;557;48.466;7.950;2023-04-25T07:05:19;7.70;99.90
1137;DHT22;557;48.466;7.950;2023-04-25T07:08:07;7.70;99.90
1137;DHT22;557;48.466;7.950;2023-04-25T07:10:54;7.80;99.90
1137;DHT22;557;48.466;7.950;2023-04-25T07:13:43;7.80;99.90
1137;DHT22;557;48.466;7.950;2023-04-25T07:16:30;7.70;99.90
1137;DHT22;557;48.466;7.950;2023-04-25T07:19:17;7.80;99.90
1137;DHT22;557;48.466;7.950;2023-04-25T07:22:05;7.70;99.90
1137;DHT22;557;48.466;7.950;2023-04-25T07:24:52;7.60;99.90
1137;DHT22;557;48.466;7.950;2023-04-25T07:27:39;7.60;99.90
1137;DHT22;557;48.466;7.950;2023-04-25T07:30:28;7.60;99.90
1137;DHT22;557;48.466;7.950;2023-04-25T07:33:16;7.60;99.90
1137;DHT22;557;48.466;7.950;2023-04-25T07:36:03;7.60;99.90
1137;DHT22;557;48.466;7.950;2023-04-25T07:38:51;7.60;99.90
1137;DHT22;557;48.466;7.950;2023-04-25T07:41:38;7.70;99.90
1137;DHT22;557;48.466;7.950;2023-04-25T07:44:25;7.70;99.90
1137;DHT22;557;48.466;7.950;2023-04-25T07:47:14;7.60;99.90
1137;DHT22;557;48.466;7.950;2023-04-25T07:50:01;7.70;99.90
1137;DHT22;557;48.466;7.950;2023-04-25T07:52:49;7.70;99.90
1137;DHT22;557;48.466;7.950;2023-04-25T07:55:36;7.70;99.90
1137;DHT22;557;48.466;7.950;2023-04-25T07:58:25;7.70;99.90
1137;DHT22;557;48.466;7.950;2023-04-25T08:01:13;7.70;99.90
1137;DHT22;557;48.466;7.950;2023-04-25T08:04:01;7.70;99.90
1137;DHT22;557;48.466;7.950;2023-04-25T08:06:49;7.70;99.90
1137;DHT22;557;48.466;7.950;2023-04-25T08:09:37;7.60;99.90
1137;DHT22;557;48.466;7.950;2023-04-25T08:12:24;7.70;99.90
1137;DHT22;557;48.466;7.950;2023-04-25T08:15:12;7.80;99.90
1137;DHT22;557;48.466;7.950;2023-04-25T08:18:00;7.90;99.90
1137;DHT22;557;48.466;7.950;2023-04-25T08:20:48;7.90;99.90
1137;DHT22;557;48.466;7.950;2023-04-25T08:23:36;7.90;99.90
1137;DHT22;557;48.466;7.950;2023-04-25T08:26:23;7.90;99.90
1137;DHT22;557;48.466;7.950;2023-04-25T08:29:11;7.90;99.90
1137;DHT22;557;48.466;7.950;2023-04-25T08:31:58;7.80;99.90
1137;DHT22;557;48.466;7.950;2023-04-25T08:34:46;7.90;99.90
1137;DHT22;557;48.466;7.950;2023-04-25T08:37:35;8.00;99.90
1137;DHT22;557;48.466;7.950;2023-04-25T08:40:23;8.00;99.90
1137;DHT22;557;48.466;7.950;2023-04-25T08:43:18;7.90;99.90
1137;DHT22;557;48.466;7.950;2023-04-25T08:46:06;7.90;99.90
1137;DHT22;557;48.466;7.950;2023-04-25T08:49:00;7.80;99.90
1137;DHT22;557;48.466;7.950;2023-04-25T08:51:49;7.80;99.90
1137;DHT22;557;48.466;7.950;2023-04-25T08:54:42;7.80;99.90
1137;DHT22;557;48.466;7.950;2023-04-25T08:57:31;7.80;99.90
1137;DHT22;557;48.466;7.950;2023-04-25T09:00:20;7.80;99.90
1137;DHT22;557;48.466;7.950;2023-04-25T09:03:09;7.70;99.90
1137;DHT22;557;48.466;7.950;2023-04-25T09:05:58;7.90;99.90
1137;DHT22;557;48.466;7.950;2023-04-25T09:08:45;8.10;99.90
1137;DHT22;557;48.466;7.950;2023-04-25T09:11:35;8.20;99.90
1137;DHT22;557;48.466;7.950;2023-04-25T09:14:23;8.20;99.90
1137;DHT22;557;48.466;7.950;2023-04-25T09:17:11;8.40;99.90
1137;DHT22;557;48.466;7.950;2023-04-25T09:20:06;8.20;99.90
1137;DHT22;557;48.466;7.950;2023-04-25T09:23:05;8.20;99.90
1137;DHT22;557;48.466;7.950;2023-04-25T09:25:53;8.00;99.90
1137;DHT22;557;48.466;7.950;2023-04-25T09:28:42;7.80;99.90
1137;DHT22;557;48.466;7.950;2023-04-25T09:31:33;7.80;99.90
1137;DHT22;557;48.466;7.950;2023-04-25T09:34:20;7.90;99.90
1137;DHT22;557;48.466;7.950;2023-04-25T09:37:08;8.00;99.90
1137;DHT22;557;48.466;7.950;2023-04-25T09:39:57;7.80;99.90
1137;DHT22;557;48.466;7.950;2023-04-25T09:42:46;7.90;99.90
1137;DHT22;557;48.466;7.950;2023-04-25T09:45:41;7.70;99.90
1137;DHT22;557;48.466;7.950;2023-04-25T09:48:31;7.60;99.90
1137;DHT22;557;48.466;7.950;2023-04-25T09:51:18;7.80;99.90
1137;DHT22;557;48.466;7.950;2023-04-25T09:54:06;7.70;99.90
1137;DHT22;557;48.466;7.950;2023-04-25T09:56:54;7.70;99.90
1137;DHT22;557;48.466;7.950;2023-04-25T09:59:44;7.70;99.90
1137;DHT22;557;48.466;7.950;2023-04-25T10:02:34;7.80;99.90
1137;DHT22;557;48.466;7.950;2023-04-25T10:05:22;8.10;99.90
1137;DHT22;557;48.466;7.950;2023-04-25T10:08:12;8.20;99.90
1137;DHT22;557;48.466;7.950;2023-04-25T10:11:01;8.10;99.90
1137;DHT22;557;48.466;7.950;2023-04-25T10:13:50;8.10;99.90
1137;DHT22;557;48.466;7.950;2023-04-25T10:16:38;8.00;99.90
1137;DHT22;557;48.466;7.950;2023-04-25T10:19:28;8.10;99.90
1137;DHT22;557;48.466;7.950;2023-04-25T10:22:20;8.00;99.90
1137;DHT22;557;48.466;7.950;2023-04-25T10:25:10;8.10;99.90
1137;DHT22;557;48.466;7.950;2023-04-25T10:27:59;8.30;99.90
1137;DHT22;557;48.466;7.950;2023-04-25T10:30:58;8.40;99.90
1137;DHT22;557;48.466;7.950;2023-04-25T10:33:45;8.90;99.90
1137;DHT22;557;48.466;7.950;2023-04-25T10:36:34;9.00;22.40
1137;DHT22;557;48.466;7.950;2023-04-25T10:39:24;9.20;99.90
1137;DHT22;557;48.466;7.950;2023-04-25T10:42:11;9.20;99.90
1137;DHT22;557;48.466;7.950;2023-04-25T10:45:04;9.40;99.90
1137;DHT22;557;48.466;7.950;2023-04-25T10:47:52;9.60;61.50
1137;DHT22;557;48.466;7.950;2023-04-25T10:50:39;10.10;53.60
1137;DHT22;557;48.466;7.950;2023-04-25T10:53:33;10.30;1.00
1137;DHT22;557;48.466;7.950;2023-04-25T10:56:21;10.30;48.10
1137;DHT22;557;48.466;7.950;2023-04-25T10:59:10;10.20;1.00
1137;DHT22;557;48.466;7.950;2023-04-25T11:01:58;10.20;42.00
1137;DHT22;557;48.466;7.950;2023-04-25T11:04:45;11.20;50.80
1137;DHT22;557;48.466;7.950;2023-04-25T11:07:43;12.20;1.00
1137;DHT22;557;48.466;7.950;2023-04-25T11:10:33;12.30;1.00
1137;DHT22;557;48.466;7.950;2023-04-25T11:13:22;11.60;18.30
1137;DHT22;557;48.466;7.950;2023-04-25T11:16:09;11.40;99.90
1137;DHT22;557;48.466;7.950;2023-04-25T11:18:57;11.20;1.00
1137;DHT22;557;48.466;7.950;2023-04-25T11:21:45;11.90;1.00
1137;DHT22;557;48.466;7.950;2023-04-25T11:24:33;12.30;51.90
1137;DHT22;557;48.466;7.950;2023-04-25T11:27:22;12.20;99.90
1137;DHT22;557;48.466;7.950;2023-04-25T11:30:13;12.30;1.00
1137;DHT22;557;48.466;7.950;2023-04-25T11:33:00;13.20;1.00
1137;DHT22;557;48.466;7.950;2023-04-25T11:35:49;12.80;1.00
1137;DHT22;557;48.466;7.950;2023-04-25T11:38:36;13.10;99.90
1137;DHT22;557;48.466;7.950;2023-04-25T11:41:25;13.60;1.00
1137;DHT22;557;48.466;7.950;2023-04-25T11:44:16;13.90;99.90
1137;DHT22;557;48.466;7.950;2023-04-25T11:47:04;13.40;43.80
1137;DHT22;557;48.466;7.950;2023-04-25T11:49:53;13.10;99.90
1137;DHT22;557;48.466;7.950;2023-04-25T11:52:42;12.70;56.60
1137;DHT22;557;48.466;7.950;2023-04-25T11:55:30;12.30;99.90
1137;DHT22;557;48.466;7.950;2023-04-25T11:58:17;11.70;99.90
1137;DHT22;557;48.466;7.950;2023-04-25T12:01:06;11.40;1.00
1137;DHT22;557;48.466;7.950;2023-04-25T12:03:54;11.20;1.00
1137;DHT22;557;48.466;7.950;2023-04-25T12:06:42;11.20;1.00
1137;DHT22;557;48.466;7.950;2023-04-25T12:09:31;11.40;1.00
1137;DHT22;557;48.466;7.950;2023-04-25T12:12:19;11.30;1.00
1137;DHT22;557;48.466;7.950;2023-04-25T12:15:11;11.30;25.50
1137;DHT22;557;48.466;7.950;2023-04-25T12:18:02;11.30;1.00
1137;DHT22;557;48.466;7.950;2023-04-25T12:20:49;11.60;1.00
1137;DHT22;557;48.466;7.950;2023-04-25T12:23:38;12.30;1.00
1137;DHT22;557;48.466;7.950;2023-04-25T12:26:46;13.70;1.00
1137;DHT22;557;48.466;7.950;2023-04-25T12:29:34;14.40;1.00
1137;DHT22;557;48.466;7.950;2023-04-25T12:32:21;14.70;51.00
1137;DHT22;557;48.466;7.950;2023-04-25T12:35:10;15.90;99.90
1137;DHT22;557;48.466;7.950;2023-04-25T12:37:57;16.40;1.00
1137;DHT22;557;48.466;7.950;2023-04-25T12:40:45;15.30;1.00
1137;DHT22;557;48.466;7.950;2023-04-25T12:43:32;14.40;1.00
1137;DHT22;557;48.466;7.950;2023-04-25T12:46:20;13.70;99.90
1137;DHT22;557;48.466;7.950;2023-04-25T12:49:08;13.60;83.30
1137;DHT22;557;48.466;7.950;2023-04-25T12:51:58;13.40;99.90
1137;DHT22;557;48.466;7.950;2023-04-25T12:54:45;13.30;47.30
1137;DHT22;557;48.466;7.950;2023-04-25T12:57:32;12.60;99.90
1137;DHT22;557;48.466;7.950;2023-04-25T13:00:20;12.30;99.90
1137;DHT22;557;48.466;7.950;2023-04-25T13:03:08;12.20;99.90
1137;DHT22;557;48.466;7.950;2023-04-25T13:05:55;11.40;1.00
1137;DHT22;557;48.466;7.950;2023-04-25T13:08:44;10.60;1.00
1137;DHT22;557;48.466;7.950;2023-04-25T13:11:31;10.00;85.80
1137;DHT22;557;48.466;7.950;2023-04-25T13:14:18;9.60;82.90
1137;DHT22;557;48.466;7.950;2023-04-25T13:17:06;9.30;99.90
1137;DHT22;557;48.466;7.950;2023-04-25T13:19:53;9.10;99.90
1137;DHT22;557;48.466;7.950;2023-04-25T13:22:41;9.10;99.90
1137;DHT22;557;48.466;7.950;2023-04-25T13:25:30;9.40;99.90
1137;DHT22;557;48.466;7.950;2023-04-25T13:28:17;9.70;99.90
1137;DHT22;557;48.466;7.950;2023-04-25T13:31:05;10.30;99.90
1137;DHT22;557;48.466;7.950;2023-04-25T13:33:52;10.70;99.90
1137;DHT22;557;48.466;7.950;2023-04-25T13:36:40;11.80;99.90
1137;DHT22;557;48.466;7.950;2023-04-25T13:39:27;13.30;1.00
1137;DHT22;557;48.466;7.950;2023-04-25T13:42:16;13.50;99.90
1137;DHT22;557;48.466;7.950;2023-04-25T13:45:13;12.80;99.90
1137;DHT22;557;48.466;7.950;2023-04-25T13:48:00;12.40;1.00
1137;DHT22;557;48.466;7.950;2023-04-25T13:50:48;12.10;1.00
1137;DHT22;557;48.466;7.950;2023-04-25T13:53:35;12.10;1.00
1137;DHT22;557;48.466;7.950;2023-04-25T13:56:23;12.30;1.00
1137;DHT22;557;48.466;7.950;2023-04-25T13:59:12;12.40;1.00
1137;DHT22;557;48.466;7.950;2023-04-25T14:01:59;12.50;1.00
1137;DHT22;557;48.466;7.950;2023-04-25T14:04:46;12.80;1.00
1137;DHT22;557;48.466;7.950;2023-04-25T14:07:34;13.50;1.00
1137;DHT22;557;48.466;7.950;2023-04-25T14:10:22;14.40;1.00
1137;DHT22;557;48.466;7.950;2023-04-25T14:13:09;15.40;1.00
1137;DHT22;557;48.466;7.950;2023-04-25T14:15:58;16.40;99.90
1137;DHT22;557;48.466;7.950;2023-04-25T14:18:45;17.40;1.00
1137;DHT22;557;48.466;7.950;2023-04-25T14:21:33;18.00;1.00
1137;DHT22;557;48.466;7.950;2023-04-25T14:24:21;18.50;99.90
1137;DHT22;557;48.466;7.950;2023-04-25T14:27:08;18.50;99.90
1137;DHT22;557;48.466;7.950;2023-04-25T14:29:56;18.00;99.90
1137;DHT22;557;48.466;7.950;2023-04-25T14:32:45;17.50;99.90
1137;DHT22;557;48.466;7.950;2023-04-25T14:35:32;16.90;99.90
1137;DHT22;557;48.466;7.950;2023-04-25T14:38:19;16.30;99.90
1137;DHT22;557;48.466;7.950;2023-04-25T14:41:09;15.40;99.90
1137;DHT22;557;48.466;7.950;2023-04-25T14:43:59;15.80;99.90
1137;DHT22;557;48.466;7.950;2023-04-25T14:46:46;16.20;99.90
1137;DHT22;557;48.466;7.950;2023-04-25T14:49:35;16.60;99.90
1137;DHT22;557;48.466;7.950;2023-04-25T14:52:22;16.90;99.90
1137;DHT22;557;48.466;7.950;2023-04-25T14:55:09;17.20;99.90
1137;DHT22;557;48.466;7.950;2023-04-25T14:57:57;17.50;99.90
1137;DHT22;557;48.466;7.950;2023-04-25T15:00:45;17.70;99.90
1137;DHT22;557;48.466;7.950;2023-04-25T15:03:32;17.50;99.90
1137;DHT22;557;48.466;7.950;2023-04-25T15:06:21;17.50;99.90
1137;DHT22;557;48.466;7.950;2023-04-25T15:09:08;17.30;99.90
1137;DHT22;557;48.466;7.950;2023-04-25T15:11:57;17.00;99.90
1137;DHT22;557;48.466;7.950;2023-04-25T15:14:44;16.20;99.90
1137;DHT22;557;48.466;7.950;2023-04-25T15:17:32;15.70;99.90
1137;DHT22;557;48.466;7.950;2023-04-25T15:20:19;16.20;99.90
1137;DHT22;557;48.466;7.950;2023-04-25T15:23:08;18.00;99.90
1137;DHT22;557;48.466;7.950;2023-04-25T15:25:55;18.70;99.90
1137;DHT22;557;48.466;7.950;2023-04-25T15:28:43;17.30;99.90
1137;DHT22;557;48.466;7.950;2023-04-25T15:31:30;16.50;99.90
1137;DHT22;557;48.466;7.950;2023-04-25T15:34:17;16.00;99.90
1137;DHT22;557;48.466;7.950;2023-04-25T15:37:05;16.10;99.90
1137;DHT22;557;48.466;7.950;2023-04-25T15:40:01;18.60;99.90
1137;DHT22;557;48.466;7.950;2023-04-25T15:42:53;21.40;99.90
1137;DHT22;557;48.466;7.950;2023-04-25T15:45:40;21.80;99.90
1137;DHT22;557;48.466;7.950;2023-04-25T15:48:28;20.80;99.90
1137;DHT22;557;48.466;7.950;2023-04-25T15:51:15;19.60;94.30
1137;DHT22;557;48.466;7.950;2023-04-25T15:54:03;17.10;93.20
1137;DHT22;557;48.466;7.950;2023-04-25T15:56:51;15.00;99.90
1137;DHT22;557;48.466;7.950;2023-04-25T15:59:39;14.00;1.00
1137;DHT22;557;48.466;7.950;2023-04-25T16:02:26;13.30;99.90
1137;DHT22;557;48.466;7.950;2023-04-25T16:05:17;12.50;1.00
1137;DHT22;557;48.466;7.950;2023-04-25T16:08:05;12.00;99.90
1137;DHT22;557;48.466;7.950;2023-04-25T16:10:53;11.90;1.00
1137;DHT22;557;48.466;7.950;2023-04-25T16:13:41;11.80;99.90
1137;DHT22;557;48.466;7.950;2023-04-25T16:16:29;11.60;1.00
1137;DHT22;557;48.466;7.950;2023-04-25T16:19:16;11.50;99.90
1137;DHT22;557;48.466;7.950;2023-04-25T16:22:03;11.30;99.90
1137;DHT22;557;48.466;7.950;2023-04-25T16:24:51;11.20;1.00
1137;DHT22;557;48.466;7.950;2023-04-25T16:27:39;11.00;99.90
1137;DHT22;557;48.466;7.950;2023-04-25T16:30:27;10.80;1.00
1137;DHT22;557;48.466;7.950;2023-04-25T16:33:15;10.80;1.00
1137;DHT22;557;48.466;7.950;2023-04-25T16:36:02;10.70;1.00
1137;DHT22;557;48.466;7.950;2023-04-25T16:38:50;10.70;1.00
1137;DHT22;557;48.466;7.950;2023-04-25T16:41:37;10.60;1.00
1137;DHT22;557;48.466;7.950;2023-04-25T16:44:24;10.40;1.00
1137;DHT22;557;48.466;7.950;2023-04-25T16:47:13;10.40;56.90
1137;DHT22;557;48.466;7.950;2023-04-25T16:50:01;10.40;1.00
1137;DHT22;557;48.466;7.950;2023-04-25T16:52:49;10.40;57.70
1137;DHT22;557;48.466;7.950;2023-04-25T16:55:36;10.40;80.60
1137;DHT22;557;48.466;7.950;2023-04-25T16:58:24;10.40;80.00
1137;DHT22;557;48.466;7.950;2023-04-25T17:01:12;10.40;99.90
1137;DHT22;557;48.466;7.950;2023-04-25T17:04:03;10.40;99.90
1137;DHT22;557;48.466;7.950;2023-04-25T17:06:50;10.20;91.10
1137;DHT22;557;48.466;7.950;2023-04-25T17:09:38;10.00;99.90
1137;DHT22;557;48.466;7.950;2023-04-25T17:12:26;9.80;99.90
1137;DHT22;557;48.466;7.950;2023-04-25T17:15:13;9.70;99.90
1137;DHT22;557;48.466;7.950;2023-04-25T17:18:01;9.60;99.90
1137;DHT22;557;48.466;7.950;2023-04-25T17:20:49;9.50;99.90
1137;DHT22;557;48.466;7.950;2023-04-25T17:23:37;9.40;99.90
1137;DHT22;557;48.466;7.950;2023-04-25T17:26:29;9.40;99.90
1137;DHT22;557;48.466;7.950;2023-04-25T17:29:17;9.30;99.90
1137;DHT22;557;48.466;7.950;2023-04-25T17:32:06;9.30;99.90
1137;DHT22;557;48.466;7.950;2023-04-25T17:34:53;9.20;99.90
1137;DHT22;557;48.466;7.950;2023-04-25T17:37:43;9.00;99.90
1137;DHT22;557;48.466;7.950;2023-04-25T17:40:31;8.80;99.90
1137;DHT22;557;48.466;7.950;2023-04-25T17:43:18;8.80;99.90
1137;DHT22;557;48.466;7.950;2023-04-25T17:46:06;8.80;99.90
1137;DHT22;557;48.466;7.950;2023-04-25T17:48:53;8.70;99.90
1137;DHT22;557;48.466;7.950;2023-04-25T17:51:40;8.70;99.90
1137;DHT22;557;48.466;7.950;2023-04-25T17:54:29;8.70;99.90
1137;DHT22;557;48.466;7.950;2023-04-25T17:57:17;8.70;99.90
1137;DHT22;557;48.466;7.950;2023-04-25T18:00:07;8.70;99.90
1137;DHT22;557;48.466;7.950;2023-04-25T18:02:56;8.60;99.90
1137;DHT22;557;48.466;7.950;2023-04-25T18:05:44;8.60;99.90
1137;DHT22;557;48.466;7.950;2023-04-25T18:08:31;8.60;99.90
1137;DHT22;557;48.466;7.950;2023-04-25T18:11:20;8.60;99.90
1137;DHT22;557;48.466;7.950;2023-04-25T18:14:07;8.50;99.90
1137;DHT22;557;48.466;7.950;2023-04-25T18:16:59;8.50;99.90
1137;DHT22;557;48.466;7.950;2023-04-25T18:19:46;8.50;99.90
1137;DHT22;557;48.466;7.950;2023-04-25T18:22:36;8.40;99.90
1137;DHT22;557;48.466;7.950;2023-04-25T18:25:24;8.50;99.90
1137;DHT22;557;48.466;7.950;2023-04-25T18:28:13;8.40;99.90
1137;DHT22;557;48.466;7.950;2023-04-25T18:31:00;8.40;99.90
1137;DHT22;557;48.466;7.950;2023-04-25T18:33:49;8.40;99.90
1137;DHT22;557;48.466;7.950;2023-04-25T18:36:36;8.40;99.90
1137;DHT22;557;48.466;7.950;2023-04-25T18:39:25;8.40;99.90
1137;DHT22;557;48.466;7.950;2023-04-25T18:42:13;8.40;99.90
1137;DHT22;557;48.466;7.950;2023-04-25T18:45:02;8.40;99.90
1137;DHT22;557;48.466;7.950;2023-04-25T18:47:50;8.30;99.90
1137;DHT22;557;48.466;7.950;2023-04-25T18:50:37;8.30;99.90